• Join FlightAware (Why Join?)
  • Login
  • US Flag 
06:13PM EDT


 

Airport Tracker/Info


-or-


 

Live Flight TrackerFlight Track Log ✈ N524NK ✈ 24-Apr-2013 ✈ KMYR - KBOS

Flight Track Log - Related Links

Times and Time Zones

All times are in EDT time to prevent confusion due to time zone crossing. See the N524NK flight status page for this flight to view local times or setup timezone preferences in your user account.

Time Position Orientation Groundspeed Altitude Reporting Facility
EDT Latitude Longitude Course Direction KTS MPH feet Rate Location/Type
10:27PM 33.6380 -78.9100 158° South 178 205 1,800  Level FlightAware
10:27PM 33.6340 -78.8920 105° East 219 252 2,300 1,680 Climbing FlightAware
10:28PM 33.6370 -78.8800 73° East 233 268 2,500 1,440 Climbing FlightAware
10:28PM 33.6480 -78.8640 50° Northeast 258 297 2,900 1,800 Climbing FlightAware
10:28PM 33.6650 -78.8530 28° Northeast 278 320 3,400 3,300 Climbing FlightAware
10:29PM 33.7010 -78.8320 26° Northeast 283 326 5,400 4,020 Climbing FlightAware
10:29PM 33.7300 -78.8170 23° Northeast 277 319 7,100 3,240 Climbing FlightAware
10:30PM 33.7680 -78.8000 20° North 302 348 8,400 2,700 Climbing FlightAware
10:30PM 33.7980 -78.7860 21° North 312 359 9,600 2,460 Climbing FlightAware
10:31PM 33.8580 -78.7580 21° North 347 399 11,100 2,580 Climbing FlightAware
10:31PM 33.9350 -78.7200 22° Northeast 368 423 13,300 2,640 Climbing FlightAware
10:32PM 33.9960 -78.6900 22° Northeast 383 441 14,900 2,460 Climbing FlightAware
10:33PM 34.0750 -78.6520 22° Northeast 395 455 16,800 2,400 Climbing FlightAware
10:33PM 34.1390 -78.6210 22° Northeast 403 464 18,300 2,040 Climbing FlightAware
10:34PM 34.2250 -78.5640 29° Northeast 426 490 19,900 960 Climbing FlightAware
10:35PM 34.2950 -78.5150 30° Northeast 426 490 19,900  Level FlightAware
10:36PM 34.3530 -78.4750 30° Northeast 426 490 19,900  Level FlightAware
10:37PM 34.4250 -78.4240 30° Northeast 426 490 19,900  Level FlightAware
10:37PM 34.4830 -78.3830 30° Northeast 426 490 19,900  Level FlightAware
10:38PM 34.5410 -78.3430 30° Northeast 426 490 19,900 5,880 Level FlightAware
10:38PM 34.6447 -78.2731 30° Northeast 436 502 26,000 4,860 Climbing Washington Center
10:39PM 34.7528 -78.1981 30° Northeast 436 502 26,600 780 Climbing Washington Center
10:40PM 34.8525 -78.1231 32° Northeast 444 511 27,600 1,260 Climbing Washington Center
10:46PM 35.5090 -77.6110 32° Northeast 494 568 35,000 1,260 Climbing FlightAware
10:47PM 35.5790 -77.5440 38° Northeast 488 562 35,600 1,080 Climbing FlightAware
10:47PM 35.6690 -77.4810 30° Northeast 481 554 36,600 960 Climbing FlightAware
10:48PM 35.7380 -77.4320 30° Northeast 471 542 37,000 1,320 Climbing FlightAware
10:49PM 35.8050 -77.3850 30° Northeast 465 535 38,300 960 Climbing FlightAware
10:49PM 35.8820 -77.3320 29° Northeast 465 535 38,300 360 Level FlightAware
10:50PM 35.9790 -77.2620 30° Northeast 467 537 38,900 360 Climbing FlightAware
10:51PM 36.0550 -77.2070 30° Northeast 467 537 38,900  Level FlightAware
10:51PM 36.1180 -77.1620 30° Northeast 467 537 38,900 60 Level FlightAware
10:52PM 36.2060 -77.0990 30° Northeast 471 542 39,000 60 Climbing FlightAware
10:53PM 36.2960 -77.0340 30° Northeast 480 552 39,000  Level FlightAware
10:54PM 36.3760 -76.9760 30° Northeast 482 555 39,000  Level FlightAware
10:54PM 36.4680 -76.9100 30° Northeast 483 556 39,000  Level FlightAware
10:55PM 36.5690 -76.8360 30° Northeast 485 558 39,000  Level FlightAware
10:56PM 36.6740 -76.7600 30° Northeast 481 554 39,000  Level FlightAware
10:57PM 36.7590 -76.6980 30° Northeast 473 544 39,000  Level FlightAware
10:57PM 36.8160 -76.6570 30° Northeast 471 542 39,000  Level FlightAware
10:58PM 36.9160 -76.5840 30° Northeast 472 543 39,000  Level FlightAware
10:59PM 36.9880 -76.5300 31° Northeast 473 544 39,000  Level FlightAware
11:00PM 37.1188 -76.4340 30° Northeast 482 555 39,000  Level FlightAware ADS-B
11:00PM 37.1764 -76.3911 31° Northeast 484 557 39,000  Level FlightAware ADS-B
11:01PM 37.2357 -76.3472 31° Northeast 485 558 39,000  Level FlightAware ADS-B
11:01PM 37.2976 -76.3015 30° Northeast 486 559 39,000  Level FlightAware ADS-B
11:02PM 37.3571 -76.2574 31° Northeast 487 560 39,000  Level FlightAware ADS-B
11:02PM 37.3855 -76.2348 32° Northeast 491 565 39,000  Level FlightAware ADS-B
11:03PM 37.4419 -76.1778 39° Northeast 497 572 39,000  Level FlightAware ADS-B
11:03PM 37.5030 -76.1140 40° Northeast 496 571 39,000  Level FlightAware
11:04PM 37.5691 -76.0472 39° Northeast 497 572 39,000  Level FlightAware ADS-B
11:04PM 37.6236 -75.9913 39° Northeast 496 571 39,000  Level FlightAware ADS-B
11:05PM 37.6786 -75.9348 39° Northeast 496 571 39,000  Level FlightAware ADS-B
11:05PM 37.7313 -75.8806 39° Northeast 496 571 39,000  Level FlightAware ADS-B
11:06PM 37.7864 -75.8239 39° Northeast 497 572 39,000  Level FlightAware ADS-B
11:07PM 37.8740 -75.7330 39° Northeast 496 571 39,000  Level FlightAware
11:07PM 37.8952 -75.7110 39° Northeast 497 572 39,000  Level FlightAware ADS-B
11:07PM 37.9510 -75.6531 39° Northeast 495 570 39,000  Level FlightAware ADS-B
11:08PM 38.0053 -75.5970 39° Northeast 495 570 39,000  Level FlightAware ADS-B
11:09PM 38.0640 -75.5358 39° Northeast 496 571 39,000  Level FlightAware ADS-B
11:09PM 38.1214 -75.4755 40° Northeast 497 572 39,000  Level FlightAware ADS-B
11:10PM 38.1866 -75.4072 39° Northeast 499 574 39,000  Level FlightAware ADS-B
11:10PM 38.2407 -75.3503 40° Northeast 501 577 39,000  Level FlightAware ADS-B
11:11PM 38.2984 -75.2898 39° Northeast 501 577 39,000  Level FlightAware ADS-B
11:11PM 38.3576 -75.2276 39° Northeast 501 577 39,000  Level FlightAware ADS-B
11:12PM 38.4373 -75.1431 40° Northeast 501 577 39,000  Level FlightAware ADS-B
11:13PM 38.4911 -75.0861 40° Northeast 500 575 39,000  Level FlightAware ADS-B
11:13PM 38.5448 -75.0293 40° Northeast 499 574 39,000  Level FlightAware ADS-B
11:14PM 38.6030 -74.9676 40° Northeast 500 575 39,000  Level FlightAware ADS-B
11:14PM 38.6569 -74.9099 40° Northeast 499 574 39,000  Level FlightAware ADS-B
11:15PM 38.7103 -74.8527 40° Northeast 498 573 39,000  Level FlightAware ADS-B
11:15PM 38.7637 -74.7955 40° Northeast 498 573 39,000  Level FlightAware ADS-B
11:16PM 38.8174 -74.7380 40° Northeast 498 573 39,000  Level FlightAware ADS-B
11:16PM 38.8717 -74.6796 40° Northeast 498 573 39,000  Level FlightAware ADS-B
11:17PM 38.9414 -74.6045 40° Northeast 497 572 39,000  Level FlightAware ADS-B
11:17PM 38.9959 -74.5459 40° Northeast 497 572 39,000  Level FlightAware ADS-B
11:18PM 39.0487 -74.4887 40° Northeast 498 573 39,000  Level FlightAware ADS-B
11:18PM 39.1094 -74.4229 40° Northeast 499 574 39,000  Level FlightAware ADS-B
11:19PM 39.1634 -74.3642 40° Northeast 501 577 39,000  Level FlightAware ADS-B
11:19PM 39.2174 -74.3058 40° Northeast 501 577 39,000  Level FlightAware ADS-B
11:20PM 39.2715 -74.2468 40° Northeast 501 577 39,000  Level FlightAware ADS-B
11:20PM 39.3263 -74.1867 40° Northeast 502 578 39,000  Level FlightAware ADS-B
11:21PM 39.3819 -74.1260 40° Northeast 502 578 39,000  Level FlightAware ADS-B
11:21PM 39.4368 -74.0655 40° Northeast 502 578 39,000  Level FlightAware ADS-B
11:22PM 39.4904 -74.0067 40° Northeast 502 578 39,000  Level FlightAware ADS-B
11:22PM 39.5448 -73.9465 40° Northeast 502 578 39,000  Level FlightAware ADS-B
11:23PM 39.5990 -73.8865 40° Northeast 503 579 39,000  Level FlightAware ADS-B
11:24PM 39.6521 -73.8276 40° Northeast 503 579 39,000  Level FlightAware ADS-B
11:24PM 39.7070 -73.7666 41° Northeast 503 579 39,000  Level FlightAware ADS-B
11:25PM 39.7631 -73.7040 41° Northeast 504 580 39,000  Level FlightAware ADS-B
11:25PM 39.8228 -73.6377 40° Northeast 504 580 39,000  Level FlightAware ADS-B
11:26PM 39.8800 -73.5738 41° Northeast 504 580 39,000  Level FlightAware ADS-B
11:26PM 39.9252 -73.5231 41° Northeast 505 581 39,000  Level FlightAware ADS-B
11:27PM 39.9790 -73.4588 42° Northeast 506 582 39,000  Level FlightAware ADS-B
11:27PM 40.0366 -73.3888 43° Northeast 506 582 39,000  Level FlightAware ADS-B
11:28PM 40.0926 -73.3215 43° Northeast 506 582 39,000  Level FlightAware ADS-B
11:28PM 40.1460 -73.2573 43° Northeast 507 583 39,000  Level FlightAware ADS-B
11:29PM 40.1993 -73.1932 43° Northeast 507 583 39,000  Level FlightAware ADS-B
11:29PM 40.2627 -73.1166 43° Northeast 507 583 39,000  Level FlightAware ADS-B
11:30PM 40.3156 -73.0524 43° Northeast 508 585 39,000  Level FlightAware ADS-B
11:30PM 40.3689 -72.9877 43° Northeast 507 583 39,000  Level FlightAware ADS-B
11:31PM 40.4229 -72.9221 43° Northeast 508 585 39,000  Level FlightAware ADS-B
11:31PM 40.4745 -72.8593 43° Northeast 508 585 39,000  Level FlightAware ADS-B
11:32PM 40.5475 -72.7703 43° Northeast 510 587 39,000  Level FlightAware ADS-B
11:33PM 40.6009 -72.7053 43° Northeast 509 586 39,000  Level FlightAware ADS-B
11:33PM 40.6540 -72.6396 43° Northeast 510 587 39,000  Level FlightAware ADS-B
11:34PM 40.7062 -72.5752 43° Northeast 510 587 39,000 -420 Level FlightAware ADS-B
11:34PM 40.7601 -72.5091 43° Northeast 512 589 38,600 -1,140 Descending FlightAware ADS-B
11:35PM 40.8125 -72.4444 43° Northeast 511 588 37,900 -1,500 Descending FlightAware ADS-B
11:35PM 40.8638 -72.3804 43° Northeast 503 579 37,100 -2,280 Descending FlightAware ADS-B
11:36PM 40.9146 -72.3174 43° Northeast 509 586 35,600 -3,000 Descending FlightAware ADS-B
11:36PM 40.9683 -72.2509 43° Northeast 516 594 34,100 -3,060 Descending FlightAware ADS-B
11:37PM 41.0206 -72.1854 43° Northeast 521 600 32,500 -3,360 Descending FlightAware ADS-B
11:37PM 41.0755 -72.1163 43° Northeast 523 602 30,700 -3,600 Descending FlightAware ADS-B
11:38PM 41.1290 -72.0491 43° Northeast 526 605 28,900 -3,000 Descending FlightAware ADS-B
11:38PM 41.1839 -71.9807 43° Northeast 516 594 27,600 -2,520 Descending FlightAware ADS-B
11:39PM 41.2441 -71.9055 43° Northeast 509 586 26,100 -2,580 Descending FlightAware ADS-B
11:40PM 41.3740 -71.7410 44° Northeast 491 565 22,600 -2,700 Descending FlightAware
11:41PM 41.4340 -71.6650 44° Northeast 486 559 20,900 -2,880 Descending FlightAware
11:42PM 41.5160 -71.5610 44° Northeast 475 547 18,600 -2,700 Descending FlightAware
11:42PM 41.5780 -71.4800 44° Northeast 463 533 16,900 -2,520 Descending FlightAware
11:43PM 41.6460 -71.3950 43° Northeast 451 519 15,100 -2,100 Descending FlightAware
11:44PM 41.6970 -71.3100 51° Northeast 429 494 14,000 -1,860 Descending FlightAware
11:44PM 41.7340 -71.2370 56° Northeast 419 482 12,800 -2,100 Descending FlightAware
11:45PM 41.7920 -71.1280 54° Northeast 408 470 11,100 -1,020 Descending FlightAware
11:46PM 41.8510 -71.0200 54° Northeast 370 426 11,100 -120 Level FlightAware
11:47PM 41.8860 -70.9560 54° Northeast 346 398 11,000 -120 Descending FlightAware
11:47PM 41.9250 -70.8950 49° Northeast 345 397 11,000 -120 Level FlightAware
11:48PM 41.9810 -70.8390 37° Northeast 347 399 10,900 -900 Descending FlightAware
11:49PM 42.0280 -70.7910 37° Northeast 336 387 9,800 -2,100 Descending FlightAware
11:49PM 42.0530 -70.7660 37° Northeast 335 386 9,000 -2,220 Descending FlightAware
11:50PM 42.0970 -70.7220 37° Northeast 325 374 7,800 -2,040 Descending FlightAware
11:50PM 42.1330 -70.6850 37° Northeast 327 376 6,800 -1,980 Descending FlightAware
11:50PM 42.1600 -70.6580 37° Northeast 323 372 6,000 -1,440 Descending FlightAware
11:51PM 42.2040 -70.6230 31° Northeast 323 372 5,400 -2,400 Descending FlightAware
11:51PM 42.2340 -70.6640 315° West 282 325 3,800 -2,160 Descending FlightAware
11:52PM 42.2610 -70.6750 343° North 282 325 3,800 -600 Level FlightAware
11:53PM 42.3360 -70.7140 339° North 253 291 3,000 -540 Descending FlightAware
11:53PM 42.3610 -70.7420 320° Northwest 209 241 3,000  Level FlightAware
11:54PM 42.3710 -70.7610 305° West 207 238 3,000 -360 Level FlightAware
11:54PM 42.3900 -70.7980 305° West 170 196 2,700 -480 Descending FlightAware
11:54PM 42.3920 -70.8060 289° West 159 183 2,600 -180 Descending FlightAware
11:55PM 42.3940 -70.8280 277° West 159 183 2,600 -720 Level FlightAware
11:55PM 42.3833 -70.8333 277° West 135 155 2,100 -840 Descending KA90
11:56PM 42.3811 -70.8689 265° West 136 157 1,800 -600 Descending Boston Center
11:56PM 42.3833 -70.9000 276° West 127 146 1,500 -720 Descending KA90
11:57PM 42.3667 -70.9333 236° Southwest 123 142 800 -720 Descending KA90
11:58PM 42.3667 -70.9833 270° West 124 143 100 -720 Descending KA90
12:00AM 42.3500 -71.0000 324° Northwest  Level FlightAware Approximate